sensor_id;sensor_type;location;lat;lon;timestamp;P1;durP1;ratioP1;P2;durP2;ratioP2
29320;SDS011;16323;51.130;6.612;2023-05-07T00:01:16;0.88;;;0.80;;
29320;SDS011;16323;51.130;6.612;2023-05-07T00:03:44;0.95;;;0.55;;
29320;SDS011;16323;51.130;6.612;2023-05-07T00:06:11;0.95;;;0.70;;
29320;SDS011;16323;51.130;6.612;2023-05-07T00:08:38;0.80;;;0.70;;
29320;SDS011;16323;51.130;6.612;2023-05-07T00:11:05;1.48;;;0.90;;
29320;SDS011;16323;51.130;6.612;2023-05-07T00:13:31;1.00;;;0.75;;
29320;SDS011;16323;51.130;6.612;2023-05-07T00:16:00;0.60;;;0.60;;
29320;SDS011;16323;51.130;6.612;2023-05-07T00:18:27;0.98;;;0.80;;
29320;SDS011;16323;51.130;6.612;2023-05-07T00:20:55;0.68;;;0.68;;
29320;SDS011;16323;51.130;6.612;2023-05-07T00:23:22;1.45;;;0.77;;
29320;SDS011;16323;51.130;6.612;2023-05-07T00:25:49;1.10;;;0.80;;
29320;SDS011;16323;51.130;6.612;2023-05-07T00:28:16;1.48;;;0.80;;
29320;SDS011;16323;51.130;6.612;2023-05-07T00:30:42;0.98;;;0.88;;
29320;SDS011;16323;51.130;6.612;2023-05-07T00:33:09;1.00;;;0.88;;
29320;SDS011;16323;51.130;6.612;2023-05-07T00:35:36;1.70;;;0.80;;
29320;SDS011;16323;51.130;6.612;2023-05-07T00:38:04;0.80;;;0.73;;
29320;SDS011;16323;51.130;6.612;2023-05-07T00:40:31;0.75;;;0.75;;
29320;SDS011;16323;51.130;6.612;2023-05-07T00:42:58;1.15;;;0.90;;
29320;SDS011;16323;51.130;6.612;2023-05-07T00:45:25;0.95;;;0.70;;
29320;SDS011;16323;51.130;6.612;2023-05-07T00:47:53;0.90;;;0.73;;
29320;SDS011;16323;51.130;6.612;2023-05-07T00:50:21;2.05;;;0.95;;
29320;SDS011;16323;51.130;6.612;2023-05-07T00:52:48;1.50;;;0.88;;
29320;SDS011;16323;51.130;6.612;2023-05-07T00:55:16;0.65;;;0.63;;
29320;SDS011;16323;51.130;6.612;2023-05-07T00:57:44;1.40;;;0.82;;
29320;SDS011;16323;51.130;6.612;2023-05-07T01:00:11;0.95;;;0.73;;
29320;SDS011;16323;51.130;6.612;2023-05-07T01:02:39;0.88;;;0.73;;
29320;SDS011;16323;51.130;6.612;2023-05-07T01:05:06;0.88;;;0.68;;
29320;SDS011;16323;51.130;6.612;2023-05-07T01:07:35;0.82;;;0.52;;
29320;SDS011;16323;51.130;6.612;2023-05-07T01:10:04;1.38;;;0.88;;
29320;SDS011;16323;51.130;6.612;2023-05-07T01:12:33;0.70;;;0.70;;
29320;SDS011;16323;51.130;6.612;2023-05-07T01:15:01;0.70;;;0.60;;
29320;SDS011;16323;51.130;6.612;2023-05-07T01:17:28;1.10;;;0.70;;
29320;SDS011;16323;51.130;6.612;2023-05-07T01:19:55;0.90;;;0.75;;
29320;SDS011;16323;51.130;6.612;2023-05-07T01:22:27;0.93;;;0.73;;
29320;SDS011;16323;51.130;6.612;2023-05-07T01:24:57;0.88;;;0.80;;
29320;SDS011;16323;51.130;6.612;2023-05-07T01:27:24;1.27;;;0.80;;
29320;SDS011;16323;51.130;6.612;2023-05-07T01:29:51;0.98;;;0.80;;
29320;SDS011;16323;51.130;6.612;2023-05-07T01:32:18;1.08;;;0.88;;
29320;SDS011;16323;51.130;6.612;2023-05-07T01:34:48;1.52;;;0.90;;
29320;SDS011;16323;51.130;6.612;2023-05-07T01:37:17;0.70;;;0.70;;
29320;SDS011;16323;51.130;6.612;2023-05-07T01:39:45;1.00;;;0.70;;
29320;SDS011;16323;51.130;6.612;2023-05-07T01:42:13;1.23;;;0.70;;
29320;SDS011;16323;51.130;6.612;2023-05-07T01:44:40;1.05;;;0.75;;
29320;SDS011;16323;51.130;6.612;2023-05-07T01:47:06;0.75;;;0.70;;
29320;SDS011;16323;51.130;6.612;2023-05-07T01:49:34;0.98;;;0.70;;
29320;SDS011;16323;51.130;6.612;2023-05-07T01:52:01;1.00;;;0.75;;
29320;SDS011;16323;51.130;6.612;2023-05-07T01:54:28;0.60;;;0.60;;
29320;SDS011;16323;51.130;6.612;2023-05-07T01:56:57;1.05;;;0.90;;
29320;SDS011;16323;51.130;6.612;2023-05-07T01:59:23;0.75;;;0.60;;
29320;SDS011;16323;51.130;6.612;2023-05-07T02:01:50;1.23;;;0.70;;
29320;SDS011;16323;51.130;6.612;2023-05-07T02:04:17;0.90;;;0.75;;
29320;SDS011;16323;51.130;6.612;2023-05-07T02:06:44;1.77;;;0.90;;
29320;SDS011;16323;51.130;6.612;2023-05-07T02:09:11;1.00;;;0.88;;
29320;SDS011;16323;51.130;6.612;2023-05-07T02:11:38;0.70;;;0.70;;
29320;SDS011;16323;51.130;6.612;2023-05-07T02:14:06;0.60;;;0.60;;
29320;SDS011;16323;51.130;6.612;2023-05-07T02:16:32;1.30;;;0.93;;
29320;SDS011;16323;51.130;6.612;2023-05-07T02:18:59;1.02;;;0.70;;
29320;SDS011;16323;51.130;6.612;2023-05-07T02:21:26;1.00;;;0.80;;
29320;SDS011;16323;51.130;6.612;2023-05-07T02:23:53;1.20;;;0.80;;
29320;SDS011;16323;51.130;6.612;2023-05-07T02:26:20;1.20;;;0.93;;
29320;SDS011;16323;51.130;6.612;2023-05-07T02:28:47;1.00;;;0.60;;
29320;SDS011;16323;51.130;6.612;2023-05-07T02:31:15;1.17;;;0.80;;
29320;SDS011;16323;51.130;6.612;2023-05-07T02:33:42;2.25;;;0.90;;
29320;SDS011;16323;51.130;6.612;2023-05-07T02:36:10;0.93;;;0.60;;
29320;SDS011;16323;51.130;6.612;2023-05-07T02:38:38;1.08;;;0.60;;
29320;SDS011;16323;51.130;6.612;2023-05-07T02:41:04;0.73;;;0.65;;
29320;SDS011;16323;51.130;6.612;2023-05-07T02:43:31;0.95;;;0.70;;
29320;SDS011;16323;51.130;6.612;2023-05-07T02:46:01;0.60;;;0.60;;
29320;SDS011;16323;51.130;6.612;2023-05-07T02:48:30;1.20;;;0.90;;
29320;SDS011;16323;51.130;6.612;2023-05-07T02:50:57;1.05;;;0.70;;
29320;SDS011;16323;51.130;6.612;2023-05-07T02:53:24;1.13;;;0.80;;
29320;SDS011;16323;51.130;6.612;2023-05-07T02:55:51;0.77;;;0.70;;
29320;SDS011;16323;51.130;6.612;2023-05-07T02:58:18;0.90;;;0.77;;
29320;SDS011;16323;51.130;6.612;2023-05-07T03:00:45;1.27;;;0.85;;
29320;SDS011;16323;51.130;6.612;2023-05-07T03:03:12;0.90;;;0.70;;
29320;SDS011;16323;51.130;6.612;2023-05-07T03:05:40;0.63;;;0.63;;
29320;SDS011;16323;51.130;6.612;2023-05-07T03:08:08;0.60;;;0.52;;
29320;SDS011;16323;51.130;6.612;2023-05-07T03:10:35;0.95;;;0.70;;
29320;SDS011;16323;51.130;6.612;2023-05-07T03:13:02;1.15;;;0.70;;
29320;SDS011;16323;51.130;6.612;2023-05-07T03:15:30;0.80;;;0.65;;
29320;SDS011;16323;51.130;6.612;2023-05-07T03:17:56;0.88;;;0.75;;
29320;SDS011;16323;51.130;6.612;2023-05-07T03:20:23;0.90;;;0.65;;
29320;SDS011;16323;51.130;6.612;2023-05-07T03:22:51;1.15;;;0.70;;
29320;SDS011;16323;51.130;6.612;2023-05-07T03:25:18;1.02;;;0.65;;
29320;SDS011;16323;51.130;6.612;2023-05-07T03:27:45;1.02;;;0.80;;
29320;SDS011;16323;51.130;6.612;2023-05-07T03:30:12;1.00;;;0.88;;
29320;SDS011;16323;51.130;6.612;2023-05-07T03:32:39;0.80;;;0.70;;
29320;SDS011;16323;51.130;6.612;2023-05-07T03:35:06;0.55;;;0.55;;
29320;SDS011;16323;51.130;6.612;2023-05-07T03:37:33;1.15;;;0.60;;
29320;SDS011;16323;51.130;6.612;2023-05-07T03:40:01;1.00;;;0.63;;
29320;SDS011;16323;51.130;6.612;2023-05-07T03:42:28;0.90;;;0.70;;
29320;SDS011;16323;51.130;6.612;2023-05-07T03:44:55;0.60;;;0.60;;
29320;SDS011;16323;51.130;6.612;2023-05-07T03:47:22;0.60;;;0.60;;
29320;SDS011;16323;51.130;6.612;2023-05-07T03:49:49;1.08;;;0.75;;
29320;SDS011;16323;51.130;6.612;2023-05-07T03:52:17;0.68;;;0.68;;
29320;SDS011;16323;51.130;6.612;2023-05-07T03:54:48;0.63;;;0.63;;
29320;SDS011;16323;51.130;6.612;2023-05-07T03:57:16;1.38;;;0.68;;
29320;SDS011;16323;51.130;6.612;2023-05-07T03:59:43;0.93;;;0.70;;
29320;SDS011;16323;51.130;6.612;2023-05-07T04:02:10;0.75;;;0.50;;
29320;SDS011;16323;51.130;6.612;2023-05-07T04:04:37;1.10;;;0.60;;
29320;SDS011;16323;51.130;6.612;2023-05-07T04:07:04;0.50;;;0.50;;
29320;SDS011;16323;51.130;6.612;2023-05-07T04:09:30;1.02;;;0.80;;
29320;SDS011;16323;51.130;6.612;2023-05-07T04:11:57;0.68;;;0.60;;
29320;SDS011;16323;51.130;6.612;2023-05-07T04:14:25;1.15;;;0.70;;
29320;SDS011;16323;51.130;6.612;2023-05-07T04:16:52;1.10;;;0.70;;
29320;SDS011;16323;51.130;6.612;2023-05-07T04:19:19;0.68;;;0.68;;
29320;SDS011;16323;51.130;6.612;2023-05-07T04:21:46;1.08;;;0.80;;
29320;SDS011;16323;51.130;6.612;2023-05-07T04:24:12;0.75;;;0.70;;
29320;SDS011;16323;51.130;6.612;2023-05-07T04:26:39;1.13;;;0.70;;
29320;SDS011;16323;51.130;6.612;2023-05-07T04:29:06;1.02;;;0.70;;
29320;SDS011;16323;51.130;6.612;2023-05-07T04:31:34;0.80;;;0.60;;
29320;SDS011;16323;51.130;6.612;2023-05-07T04:34:01;0.70;;;0.68;;
29320;SDS011;16323;51.130;6.612;2023-05-07T04:36:28;1.00;;;0.70;;
29320;SDS011;16323;51.130;6.612;2023-05-07T04:38:55;0.90;;;0.68;;
29320;SDS011;16323;51.130;6.612;2023-05-07T04:41:21;1.45;;;0.80;;
29320;SDS011;16323;51.130;6.612;2023-05-07T04:43:48;0.73;;;0.68;;
29320;SDS011;16323;51.130;6.612;2023-05-07T04:46:16;0.77;;;0.77;;
29320;SDS011;16323;51.130;6.612;2023-05-07T04:48:44;0.70;;;0.70;;
29320;SDS011;16323;51.130;6.612;2023-05-07T04:51:11;0.60;;;0.60;;
29320;SDS011;16323;51.130;6.612;2023-05-07T04:53:38;0.85;;;0.68;;
29320;SDS011;16323;51.130;6.612;2023-05-07T04:56:04;0.80;;;0.80;;
29320;SDS011;16323;51.130;6.612;2023-05-07T04:58:32;0.63;;;0.63;;
29320;SDS011;16323;51.130;6.612;2023-05-07T05:00:58;0.60;;;0.60;;
29320;SDS011;16323;51.130;6.612;2023-05-07T05:03:25;0.70;;;0.70;;
29320;SDS011;16323;51.130;6.612;2023-05-07T05:05:54;0.43;;;0.43;;
29320;SDS011;16323;51.130;6.612;2023-05-07T05:08:22;1.42;;;0.77;;
29320;SDS011;16323;51.130;6.612;2023-05-07T05:10:48;0.80;;;0.60;;
29320;SDS011;16323;51.130;6.612;2023-05-07T05:13:15;0.73;;;0.70;;
29320;SDS011;16323;51.130;6.612;2023-05-07T05:15:42;0.93;;;0.70;;
29320;SDS011;16323;51.130;6.612;2023-05-07T05:18:09;0.70;;;0.70;;
29320;SDS011;16323;51.130;6.612;2023-05-07T05:20:36;0.93;;;0.52;;
29320;SDS011;16323;51.130;6.612;2023-05-07T05:23:04;0.65;;;0.60;;
29320;SDS011;16323;51.130;6.612;2023-05-07T05:25:31;2.35;;;0.82;;
29320;SDS011;16323;51.130;6.612;2023-05-07T05:27:57;0.88;;;0.80;;
29320;SDS011;16323;51.130;6.612;2023-05-07T05:30:24;0.90;;;0.70;;
29320;SDS011;16323;51.130;6.612;2023-05-07T05:32:51;0.85;;;0.60;;
29320;SDS011;16323;51.130;6.612;2023-05-07T05:35:18;0.63;;;0.50;;
29320;SDS011;16323;51.130;6.612;2023-05-07T05:37:44;0.70;;;0.70;;
29320;SDS011;16323;51.130;6.612;2023-05-07T05:40:13;0.60;;;0.60;;
29320;SDS011;16323;51.130;6.612;2023-05-07T05:42:40;0.77;;;0.63;;
29320;SDS011;16323;51.130;6.612;2023-05-07T05:45:07;0.68;;;0.68;;
29320;SDS011;16323;51.130;6.612;2023-05-07T05:47:37;0.68;;;0.50;;
29320;SDS011;16323;51.130;6.612;2023-05-07T05:50:04;0.30;;;0.30;;
29320;SDS011;16323;51.130;6.612;2023-05-07T05:52:31;0.88;;;0.50;;
29320;SDS011;16323;51.130;6.612;2023-05-07T05:54:58;0.95;;;0.60;;
29320;SDS011;16323;51.130;6.612;2023-05-07T05:57:26;0.80;;;0.63;;
29320;SDS011;16323;51.130;6.612;2023-05-07T05:59:54;0.90;;;0.68;;
29320;SDS011;16323;51.130;6.612;2023-05-07T06:02:21;1.52;;;0.70;;
29320;SDS011;16323;51.130;6.612;2023-05-07T06:04:48;0.60;;;0.60;;
29320;SDS011;16323;51.130;6.612;2023-05-07T06:07:15;0.77;;;0.68;;
29320;SDS011;16323;51.130;6.612;2023-05-07T06:09:41;0.70;;;0.50;;
29320;SDS011;16323;51.130;6.612;2023-05-07T06:12:08;1.13;;;0.60;;
29320;SDS011;16323;51.130;6.612;2023-05-07T06:14:36;0.60;;;0.50;;
29320;SDS011;16323;51.130;6.612;2023-05-07T06:17:03;0.60;;;0.50;;
29320;SDS011;16323;51.130;6.612;2023-05-07T06:19:30;0.60;;;0.57;;
29320;SDS011;16323;51.130;6.612;2023-05-07T06:21:57;1.27;;;0.80;;
29320;SDS011;16323;51.130;6.612;2023-05-07T06:24:23;0.90;;;0.40;;
29320;SDS011;16323;51.130;6.612;2023-05-07T06:26:50;1.00;;;0.60;;
29320;SDS011;16323;51.130;6.612;2023-05-07T06:29:17;1.17;;;0.70;;
29320;SDS011;16323;51.130;6.612;2023-05-07T06:31:45;0.60;;;0.60;;
29320;SDS011;16323;51.130;6.612;2023-05-07T06:34:12;0.80;;;0.43;;
29320;SDS011;16323;51.130;6.612;2023-05-07T06:36:40;0.60;;;0.50;;
29320;SDS011;16323;51.130;6.612;2023-05-07T06:39:06;0.60;;;0.60;;
29320;SDS011;16323;51.130;6.612;2023-05-07T06:41:33;1.35;;;0.60;;
29320;SDS011;16323;51.130;6.612;2023-05-07T06:44:00;0.45;;;0.45;;
29320;SDS011;16323;51.130;6.612;2023-05-07T06:46:27;0.68;;;0.50;;
29320;SDS011;16323;51.130;6.612;2023-05-07T06:48:55;0.45;;;0.45;;
29320;SDS011;16323;51.130;6.612;2023-05-07T06:51:22;0.73;;;0.57;;
29320;SDS011;16323;51.130;6.612;2023-05-07T06:53:49;0.70;;;0.60;;
29320;SDS011;16323;51.130;6.612;2023-05-07T06:56:16;0.80;;;0.50;;
29320;SDS011;16323;51.130;6.612;2023-05-07T06:58:43;0.40;;;0.30;;
29320;SDS011;16323;51.130;6.612;2023-05-07T07:01:09;1.02;;;0.60;;
29320;SDS011;16323;51.130;6.612;2023-05-07T07:03:36;1.05;;;0.50;;
29320;SDS011;16323;51.130;6.612;2023-05-07T07:06:05;0.80;;;0.70;;
29320;SDS011;16323;51.130;6.612;2023-05-07T07:08:32;0.40;;;0.40;;
29320;SDS011;16323;51.130;6.612;2023-05-07T07:10:59;0.68;;;0.40;;
29320;SDS011;16323;51.130;6.612;2023-05-07T07:13:26;0.70;;;0.70;;
29320;SDS011;16323;51.130;6.612;2023-05-07T07:15:53;1.48;;;0.43;;
29320;SDS011;16323;51.130;6.612;2023-05-07T07:18:20;0.50;;;0.50;;
29320;SDS011;16323;51.130;6.612;2023-05-07T07:20:46;1.27;;;0.50;;
29320;SDS011;16323;51.130;6.612;2023-05-07T07:23:14;0.40;;;0.40;;
29320;SDS011;16323;51.130;6.612;2023-05-07T07:25:41;0.60;;;0.55;;
29320;SDS011;16323;51.130;6.612;2023-05-07T07:28:08;0.43;;;0.43;;
29320;SDS011;16323;51.130;6.612;2023-05-07T07:30:35;0.65;;;0.50;;
29320;SDS011;16323;51.130;6.612;2023-05-07T07:33:02;0.68;;;0.50;;
29320;SDS011;16323;51.130;6.612;2023-05-07T07:35:30;0.65;;;0.40;;
29320;SDS011;16323;51.130;6.612;2023-05-07T07:37:57;0.60;;;0.60;;
29320;SDS011;16323;51.130;6.612;2023-05-07T07:40:25;0.95;;;0.52;;
29320;SDS011;16323;51.130;6.612;2023-05-07T07:42:52;0.88;;;0.43;;
29320;SDS011;16323;51.130;6.612;2023-05-07T07:45:19;0.73;;;0.70;;
29320;SDS011;16323;51.130;6.612;2023-05-07T07:47:46;0.60;;;0.40;;
29320;SDS011;16323;51.130;6.612;2023-05-07T07:50:13;0.55;;;0.52;;
29320;SDS011;16323;51.130;6.612;2023-05-07T07:52:40;0.52;;;0.40;;
29320;SDS011;16323;51.130;6.612;2023-05-07T07:55:07;0.68;;;0.40;;
29320;SDS011;16323;51.130;6.612;2023-05-07T07:57:36;0.50;;;0.40;;
29320;SDS011;16323;51.130;6.612;2023-05-07T08:00:03;0.60;;;0.38;;
29320;SDS011;16323;51.130;6.612;2023-05-07T08:02:32;0.40;;;0.40;;
29320;SDS011;16323;51.130;6.612;2023-05-07T08:04:59;0.50;;;0.50;;
29320;SDS011;16323;51.130;6.612;2023-05-07T08:07:25;0.60;;;0.40;;
29320;SDS011;16323;51.130;6.612;2023-05-07T08:09:52;0.40;;;0.40;;
29320;SDS011;16323;51.130;6.612;2023-05-07T08:12:19;0.90;;;0.50;;
29320;SDS011;16323;51.130;6.612;2023-05-07T08:14:48;0.32;;;0.32;;
29320;SDS011;16323;51.130;6.612;2023-05-07T08:17:14;0.73;;;0.60;;
29320;SDS011;16323;51.130;6.612;2023-05-07T08:19:41;0.50;;;0.40;;
29320;SDS011;16323;51.130;6.612;2023-05-07T08:22:08;0.40;;;0.40;;
29320;SDS011;16323;51.130;6.612;2023-05-07T08:24:35;0.98;;;0.43;;
29320;SDS011;16323;51.130;6.612;2023-05-07T08:27:02;0.30;;;0.30;;
29320;SDS011;16323;51.130;6.612;2023-05-07T08:29:29;0.43;;;0.38;;
29320;SDS011;16323;51.130;6.612;2023-05-07T08:31:57;0.63;;;0.50;;
29320;SDS011;16323;51.130;6.612;2023-05-07T08:34:24;0.52;;;0.45;;
29320;SDS011;16323;51.130;6.612;2023-05-07T08:36:51;0.43;;;0.43;;
29320;SDS011;16323;51.130;6.612;2023-05-07T08:39:18;0.52;;;0.40;;
29320;SDS011;16323;51.130;6.612;2023-05-07T08:41:44;0.50;;;0.40;;
29320;SDS011;16323;51.130;6.612;2023-05-07T08:44:12;0.40;;;0.40;;
29320;SDS011;16323;51.130;6.612;2023-05-07T08:46:42;1.10;;;0.50;;
29320;SDS011;16323;51.130;6.612;2023-05-07T08:49:14;0.98;;;0.38;;
29320;SDS011;16323;51.130;6.612;2023-05-07T08:51:41;0.60;;;0.50;;
29320;SDS011;16323;51.130;6.612;2023-05-07T08:54:08;0.52;;;0.45;;
29320;SDS011;16323;51.130;6.612;2023-05-07T08:56:37;1.10;;;0.55;;
29320;SDS011;16323;51.130;6.612;2023-05-07T08:59:04;0.55;;;0.55;;
29320;SDS011;16323;51.130;6.612;2023-05-07T09:01:31;0.75;;;0.50;;
29320;SDS011;16323;51.130;6.612;2023-05-07T09:04:00;0.55;;;0.43;;
29320;SDS011;16323;51.130;6.612;2023-05-07T09:06:28;0.40;;;0.40;;
29320;SDS011;16323;51.130;6.612;2023-05-07T09:08:56;0.60;;;0.50;;
29320;SDS011;16323;51.130;6.612;2023-05-07T09:11:23;0.40;;;0.40;;
29320;SDS011;16323;51.130;6.612;2023-05-07T09:13:53;0.25;;;0.25;;
29320;SDS011;16323;51.130;6.612;2023-05-07T09:16:20;0.20;;;0.20;;
29320;SDS011;16323;51.130;6.612;2023-05-07T09:18:48;0.47;;;0.47;;
29320;SDS011;16323;51.130;6.612;2023-05-07T09:21:17;0.40;;;0.40;;
29320;SDS011;16323;51.130;6.612;2023-05-07T09:23:46;0.50;;;0.40;;
29320;SDS011;16323;51.130;6.612;2023-05-07T09:26:14;0.52;;;0.38;;
29320;SDS011;16323;51.130;6.612;2023-05-07T09:28:41;0.45;;;0.38;;
29320;SDS011;16323;51.130;6.612;2023-05-07T09:31:09;0.40;;;0.40;;
29320;SDS011;16323;51.130;6.612;2023-05-07T09:33:36;0.25;;;0.25;;
29320;SDS011;16323;51.130;6.612;2023-05-07T09:36:03;0.57;;;0.40;;
29320;SDS011;16323;51.130;6.612;2023-05-07T09:38:31;0.30;;;0.30;;
29320;SDS011;16323;51.130;6.612;2023-05-07T09:41:03;0.30;;;0.30;;
29320;SDS011;16323;51.130;6.612;2023-05-07T09:43:34;0.30;;;0.30;;
29320;SDS011;16323;51.130;6.612;2023-05-07T09:46:06;1.17;;;0.32;;
29320;SDS011;16323;51.130;6.612;2023-05-07T09:48:37;0.30;;;0.30;;
29320;SDS011;16323;51.130;6.612;2023-05-07T09:51:06;0.30;;;0.30;;
29320;SDS011;16323;51.130;6.612;2023-05-07T09:53:44;0.77;;;0.60;;
29320;SDS011;16323;51.130;6.612;2023-05-07T09:56:14;0.30;;;0.30;;
29320;SDS011;16323;51.130;6.612;2023-05-07T09:58:41;1.08;;;0.43;;
29320;SDS011;16323;51.130;6.612;2023-05-07T10:01:10;0.60;;;0.40;;
29320;SDS011;16323;51.130;6.612;2023-05-07T10:03:37;0.30;;;0.30;;
29320;SDS011;16323;51.130;6.612;2023-05-07T10:06:08;0.40;;;0.40;;
29320;SDS011;16323;51.130;6.612;2023-05-07T10:08:35;0.45;;;0.30;;
29320;SDS011;16323;51.130;6.612;2023-05-07T10:11:03;0.50;;;0.40;;
29320;SDS011;16323;51.130;6.612;2023-05-07T10:13:32;0.30;;;0.30;;
29320;SDS011;16323;51.130;6.612;2023-05-07T10:16:02;0.40;;;0.40;;
29320;SDS011;16323;51.130;6.612;2023-05-07T10:18:30;0.32;;;0.30;;
29320;SDS011;16323;51.130;6.612;2023-05-07T10:20:59;0.75;;;0.60;;
29320;SDS011;16323;51.130;6.612;2023-05-07T10:23:30;0.30;;;0.30;;
29320;SDS011;16323;51.130;6.612;2023-05-07T10:25:59;0.30;;;0.30;;
29320;SDS011;16323;51.130;6.612;2023-05-07T10:28:27;0.40;;;0.40;;
29320;SDS011;16323;51.130;6.612;2023-05-07T10:31:01;0.25;;;0.25;;
29320;SDS011;16323;51.130;6.612;2023-05-07T10:33:35;0.30;;;0.30;;
29320;SDS011;16323;51.130;6.612;2023-05-07T10:36:04;0.40;;;0.40;;
29320;SDS011;16323;51.130;6.612;2023-05-07T10:38:33;1.13;;;0.50;;
29320;SDS011;16323;51.130;6.612;2023-05-07T10:41:00;0.55;;;0.30;;
29320;SDS011;16323;51.130;6.612;2023-05-07T10:43:37;0.30;;;0.30;;
29320;SDS011;16323;51.130;6.612;2023-05-07T10:46:11;0.30;;;0.30;;
29320;SDS011;16323;51.130;6.612;2023-05-07T10:51:33;1.25;;;0.38;;
29320;SDS011;16323;51.130;6.612;2023-05-07T10:54:19;0.60;;;0.20;;
29320;SDS011;16323;51.130;6.612;2023-05-07T10:56:52;1.00;;;0.40;;
29320;SDS011;16323;51.130;6.612;2023-05-07T10:59:37;0.38;;;0.20;;
29320;SDS011;16323;51.130;6.612;2023-05-07T11:02:09;0.32;;;0.30;;
29320;SDS011;16323;51.130;6.612;2023-05-07T11:04:39;0.40;;;0.40;;
29320;SDS011;16323;51.130;6.612;2023-05-07T11:07:24;0.20;;;0.20;;
29320;SDS011;16323;51.130;6.612;2023-05-07T11:09:58;0.60;;;0.40;;
29320;SDS011;16323;51.130;6.612;2023-05-07T11:15:31;0.80;;;0.30;;
29320;SDS011;16323;51.130;6.612;2023-05-07T11:18:04;0.30;;;0.30;;
29320;SDS011;16323;51.130;6.612;2023-05-07T11:26:22;0.38;;;0.30;;
29320;SDS011;16323;51.130;6.612;2023-05-07T11:28:50;0.63;;;0.30;;
29320;SDS011;16323;51.130;6.612;2023-05-07T11:31:20;0.38;;;0.30;;
29320;SDS011;16323;51.130;6.612;2023-05-07T11:33:49;1.98;;;0.40;;
29320;SDS011;16323;51.130;6.612;2023-05-07T11:36:17;0.30;;;0.30;;
29320;SDS011;16323;51.130;6.612;2023-05-07T11:38:45;0.63;;;0.40;;
29320;SDS011;16323;51.130;6.612;2023-05-07T11:41:12;0.30;;;0.30;;
29320;SDS011;16323;51.130;6.612;2023-05-07T11:43:53;0.57;;;0.40;;
29320;SDS011;16323;51.130;6.612;2023-05-07T11:46:21;1.35;;;0.60;;
29320;SDS011;16323;51.130;6.612;2023-05-07T11:48:48;0.57;;;0.47;;
29320;SDS011;16323;51.130;6.612;2023-05-07T11:51:19;0.40;;;0.40;;
29320;SDS011;16323;51.130;6.612;2023-05-07T11:53:46;0.50;;;0.50;;
29320;SDS011;16323;51.130;6.612;2023-05-07T11:56:14;0.30;;;0.30;;
29320;SDS011;16323;51.130;6.612;2023-05-07T11:58:42;0.30;;;0.30;;
29320;SDS011;16323;51.130;6.612;2023-05-07T12:01:10;0.28;;;0.28;;
29320;SDS011;16323;51.130;6.612;2023-05-07T12:03:39;0.57;;;0.40;;
29320;SDS011;16323;51.130;6.612;2023-05-07T12:06:10;0.40;;;0.40;;
29320;SDS011;16323;51.130;6.612;2023-05-07T12:08:37;0.73;;;0.38;;
29320;SDS011;16323;51.130;6.612;2023-05-07T12:11:09;0.50;;;0.47;;
29320;SDS011;16323;51.130;6.612;2023-05-07T12:13:38;0.43;;;0.32;;
29320;SDS011;16323;51.130;6.612;2023-05-07T12:16:05;0.57;;;0.50;;
29320;SDS011;16323;51.130;6.612;2023-05-07T12:18:33;0.40;;;0.40;;
29320;SDS011;16323;51.130;6.612;2023-05-07T12:21:01;0.70;;;0.35;;
29320;SDS011;16323;51.130;6.612;2023-05-07T12:23:31;0.30;;;0.22;;
29320;SDS011;16323;51.130;6.612;2023-05-07T12:25:58;0.85;;;0.55;;
29320;SDS011;16323;51.130;6.612;2023-05-07T12:28:26;0.50;;;0.30;;
29320;SDS011;16323;51.130;6.612;2023-05-07T12:30:52;0.50;;;0.25;;
29320;SDS011;16323;51.130;6.612;2023-05-07T12:33:23;1.45;;;0.60;;
29320;SDS011;16323;51.130;6.612;2023-05-07T12:35:52;0.65;;;0.40;;
29320;SDS011;16323;51.130;6.612;2023-05-07T12:38:20;0.40;;;0.40;;
29320;SDS011;16323;51.130;6.612;2023-05-07T12:40:49;0.77;;;0.40;;
29320;SDS011;16323;51.130;6.612;2023-05-07T12:43:17;0.70;;;0.40;;
29320;SDS011;16323;51.130;6.612;2023-05-07T12:45:44;0.47;;;0.40;;
29320;SDS011;16323;51.130;6.612;2023-05-07T12:48:12;0.32;;;0.30;;
29320;SDS011;16323;51.130;6.612;2023-05-07T12:50:39;0.73;;;0.35;;
29320;SDS011;16323;51.130;6.612;2023-05-07T12:53:06;0.75;;;0.30;;
29320;SDS011;16323;51.130;6.612;2023-05-07T12:55:40;0.30;;;0.30;;
29320;SDS011;16323;51.130;6.612;2023-05-07T12:58:15;0.40;;;0.30;;
29320;SDS011;16323;51.130;6.612;2023-05-07T13:00:42;0.30;;;0.30;;
29320;SDS011;16323;51.130;6.612;2023-05-07T13:03:10;0.80;;;0.73;;
29320;SDS011;16323;51.130;6.612;2023-05-07T13:05:37;0.32;;;0.30;;
29320;SDS011;16323;51.130;6.612;2023-05-07T13:08:04;0.57;;;0.50;;
29320;SDS011;16323;51.130;6.612;2023-05-07T13:10:30;0.73;;;0.45;;
29320;SDS011;16323;51.130;6.612;2023-05-07T13:12:59;0.70;;;0.40;;
29320;SDS011;16323;51.130;6.612;2023-05-07T13:15:27;0.20;;;0.20;;
29320;SDS011;16323;51.130;6.612;2023-05-07T13:17:54;0.47;;;0.30;;
29320;SDS011;16323;51.130;6.612;2023-05-07T13:20:21;0.35;;;0.35;;
29320;SDS011;16323;51.130;6.612;2023-05-07T13:22:48;0.73;;;0.47;;
29320;SDS011;16323;51.130;6.612;2023-05-07T13:25:15;0.40;;;0.30;;
29320;SDS011;16323;51.130;6.612;2023-05-07T13:27:41;0.22;;;0.22;;
29320;SDS011;16323;51.130;6.612;2023-05-07T13:30:08;0.20;;;0.20;;
29320;SDS011;16323;51.130;6.612;2023-05-07T13:32:37;0.88;;;0.40;;
29320;SDS011;16323;51.130;6.612;2023-05-07T13:35:03;0.28;;;0.28;;
29320;SDS011;16323;51.130;6.612;2023-05-07T13:37:31;0.40;;;0.40;;
29320;SDS011;16323;51.130;6.612;2023-05-07T13:39:58;0.40;;;0.30;;
29320;SDS011;16323;51.130;6.612;2023-05-07T13:42:24;0.30;;;0.30;;
29320;SDS011;16323;51.130;6.612;2023-05-07T13:44:51;0.73;;;0.30;;
29320;SDS011;16323;51.130;6.612;2023-05-07T13:47:18;1.08;;;0.40;;
29320;SDS011;16323;51.130;6.612;2023-05-07T13:49:46;0.50;;;0.50;;
29320;SDS011;16323;51.130;6.612;2023-05-07T13:52:14;1.58;;;0.40;;
29320;SDS011;16323;51.130;6.612;2023-05-07T13:54:41;0.40;;;0.40;;
29320;SDS011;16323;51.130;6.612;2023-05-07T13:57:08;0.40;;;0.40;;
29320;SDS011;16323;51.130;6.612;2023-05-07T13:59:35;0.60;;;0.35;;
29320;SDS011;16323;51.130;6.612;2023-05-07T14:02:01;0.57;;;0.50;;
29320;SDS011;16323;51.130;6.612;2023-05-07T14:04:28;0.52;;;0.40;;
29320;SDS011;16323;51.130;6.612;2023-05-07T14:06:57;0.40;;;0.40;;
29320;SDS011;16323;51.130;6.612;2023-05-07T14:09:24;0.47;;;0.38;;
29320;SDS011;16323;51.130;6.612;2023-05-07T14:11:51;0.55;;;0.40;;
29320;SDS011;16323;51.130;6.612;2023-05-07T14:14:18;0.68;;;0.40;;
29320;SDS011;16323;51.130;6.612;2023-05-07T14:16:45;0.45;;;0.30;;
29320;SDS011;16323;51.130;6.612;2023-05-07T14:19:12;0.85;;;0.40;;
29320;SDS011;16323;51.130;6.612;2023-05-07T14:21:38;0.95;;;0.50;;
29320;SDS011;16323;51.130;6.612;2023-05-07T14:24:07;0.65;;;0.60;;
29320;SDS011;16323;51.130;6.612;2023-05-07T14:26:34;0.55;;;0.40;;
29320;SDS011;16323;51.130;6.612;2023-05-07T14:29:01;0.40;;;0.40;;
29320;SDS011;16323;51.130;6.612;2023-05-07T14:31:28;0.40;;;0.40;;
29320;SDS011;16323;51.130;6.612;2023-05-07T14:33:55;0.30;;;0.22;;
29320;SDS011;16323;51.130;6.612;2023-05-07T14:36:23;0.65;;;0.40;;
29320;SDS011;16323;51.130;6.612;2023-05-07T14:38:51;0.57;;;0.50;;
29320;SDS011;16323;51.130;6.612;2023-05-07T14:41:19;0.30;;;0.30;;
29320;SDS011;16323;51.130;6.612;2023-05-07T14:43:46;0.65;;;0.40;;
29320;SDS011;16323;51.130;6.612;2023-05-07T14:46:15;1.75;;;0.80;;
29320;SDS011;16323;51.130;6.612;2023-05-07T14:48:42;0.90;;;0.43;;
29320;SDS011;16323;51.130;6.612;2023-05-07T14:51:10;0.90;;;0.50;;
29320;SDS011;16323;51.130;6.612;2023-05-07T14:53:37;1.48;;;0.50;;
29320;SDS011;16323;51.130;6.612;2023-05-07T14:56:04;0.68;;;0.60;;
29320;SDS011;16323;51.130;6.612;2023-05-07T14:58:32;0.77;;;0.50;;
29320;SDS011;16323;51.130;6.612;2023-05-07T15:01:00;0.70;;;0.50;;
29320;SDS011;16323;51.130;6.612;2023-05-07T15:03:27;1.05;;;0.52;;